createdAt,value
2019-03-18T00:01:44.756Z,50.55
2019-03-18T00:04:15.927Z,57.20
2019-03-18T00:06:48.746Z,70.27
2019-03-18T00:09:19.852Z,57.93
2019-03-18T00:11:50.890Z,55.60
2019-03-18T00:14:22.044Z,43.87
2019-03-18T00:16:53.212Z,48.20
2019-03-18T00:19:24.205Z,58.58
2019-03-18T00:21:55.295Z,60.78
2019-03-18T00:24:26.402Z,81.42
2019-03-18T00:26:57.598Z,65.57
2019-03-18T00:29:29.177Z,61.13
2019-03-18T00:32:00.290Z,59.03
2019-03-18T00:34:31.464Z,65.00
2019-03-18T00:37:02.755Z,66.50
2019-03-18T00:39:33.795Z,75.40
2019-03-18T00:42:04.828Z,69.35
2019-03-18T00:44:35.873Z,71.85
2019-03-18T00:47:07.012Z,68.12
2019-03-18T00:49:38.049Z,62.50
2019-03-18T00:52:09.095Z,62.67
2019-03-18T00:54:40.207Z,56.75
2019-03-18T00:57:11.322Z,61.95
2019-03-18T00:59:42.386Z,57.95
2019-03-18T01:02:13.504Z,62.08
2019-03-18T01:04:44.664Z,72.20
2019-03-18T01:07:15.799Z,69.05
2019-03-18T01:09:46.866Z,65.92
2019-03-18T01:12:17.983Z,65.42
2019-03-18T01:14:48.983Z,63.20
2019-03-18T01:17:20.030Z,64.05
2019-03-18T01:19:51.176Z,66.10
2019-03-18T01:22:22.254Z,66.77
2019-03-18T01:24:53.355Z,67.50
2019-03-18T01:27:25.576Z,69.92
2019-03-18T01:29:56.762Z,67.50
2019-03-18T01:32:27.921Z,61.00
2019-03-18T01:34:59.054Z,58.70
2019-03-18T01:37:30.319Z,56.25
2019-03-18T01:40:01.339Z,54.85
2019-03-18T01:42:32.531Z,50.25
2019-03-18T01:45:04.625Z,48.80
2019-03-18T01:47:35.713Z,49.00
2019-03-18T01:50:16.720Z,56.98
2019-03-18T01:52:47.752Z,51.23
2019-03-18T01:55:18.922Z,52.48
2019-03-18T01:57:50.008Z,53.33
2019-03-18T02:00:21.024Z,47.67
2019-03-18T02:02:52.150Z,49.25
2019-03-18T02:05:23.241Z,43.40
2019-03-18T02:07:54.367Z,54.03
2019-03-18T02:10:25.356Z,66.05
2019-03-18T02:12:56.459Z,72.12
2019-03-18T02:15:27.504Z,83.82
2019-03-18T02:17:58.493Z,67.70
2019-03-18T02:20:29.588Z,69.00
2019-03-18T02:23:00.630Z,60.90
2019-03-18T02:25:31.762Z,62.10
2019-03-18T02:28:03.301Z,61.92
2019-03-18T02:30:34.361Z,59.40
2019-03-18T02:33:05.436Z,56.30
2019-03-18T02:35:36.420Z,55.60
2019-03-18T02:38:07.633Z,58.48
2019-03-18T02:40:38.820Z,56.92
2019-03-18T02:43:09.934Z,53.60
2019-03-18T02:45:41.015Z,55.78
2019-03-18T02:48:12.051Z,57.33
2019-03-18T02:50:43.252Z,63.75
2019-03-18T02:53:14.340Z,55.43
2019-03-18T02:55:45.459Z,51.53
2019-03-18T02:58:16.671Z,50.33
2019-03-18T03:00:47.666Z,54.48
2019-03-18T03:03:18.870Z,56.05
2019-03-18T03:05:49.952Z,52.62
2019-03-18T03:08:21.049Z,54.77
2019-03-18T03:10:53.380Z,56.05
2019-03-18T03:13:24.564Z,50.80
2019-03-18T03:15:55.675Z,53.50
2019-03-18T03:18:26.760Z,52.62
2019-03-18T03:20:57.789Z,49.00
2019-03-18T03:23:30.380Z,52.25
2019-03-18T03:26:01.391Z,40.45
2019-03-18T03:28:32.518Z,51.77
2019-03-18T03:31:03.966Z,51.35
2019-03-18T03:33:35.068Z,50.78
2019-03-18T03:36:06.142Z,49.93
2019-03-18T03:38:37.210Z,48.90
2019-03-18T03:41:08.236Z,49.35
2019-03-18T03:43:39.276Z,48.08
2019-03-18T03:46:10.315Z,49.70
2019-03-18T03:48:41.292Z,48.42
2019-03-18T03:51:12.467Z,50.40
2019-03-18T03:53:43.556Z,51.20
2019-03-18T03:56:14.599Z,51.23
2019-03-18T03:58:46.118Z,51.02
2019-03-18T04:01:17.176Z,49.13
2019-03-18T04:03:48.190Z,47.38
2019-03-18T04:06:19.254Z,44.88
2019-03-18T04:08:50.238Z,45.75
2019-03-18T04:11:21.342Z,43.23
2019-03-18T04:13:52.416Z,46.18
2019-03-18T04:16:23.544Z,49.38
2019-03-18T04:18:54.625Z,57.55
2019-03-18T04:21:25.728Z,61.30
2019-03-18T04:23:56.770Z,59.25
2019-03-18T04:26:28.932Z,56.28
2019-03-18T04:29:00.156Z,53.58
2019-03-18T04:31:31.226Z,54.23
2019-03-18T04:34:02.323Z,55.58
2019-03-18T04:36:33.406Z,53.70
2019-03-18T04:39:06.230Z,49.33
2019-03-18T04:41:37.537Z,45.90
2019-03-18T04:44:08.712Z,45.90
2019-03-18T04:46:39.780Z,42.95
2019-03-18T04:49:10.970Z,41.68
2019-03-18T04:51:42.115Z,49.63
2019-03-18T04:54:13.157Z,60.95
2019-03-18T04:56:44.198Z,62.00
2019-03-18T04:59:15.381Z,54.05
2019-03-18T05:01:46.398Z,50.30
2019-03-18T05:04:17.524Z,47.10
2019-03-18T05:06:48.571Z,48.10
2019-03-18T05:09:19.604Z,50.98
2019-03-18T05:11:50.753Z,46.68
2019-03-18T05:14:21.796Z,44.93
2019-03-18T05:16:52.782Z,41.00
2019-03-18T05:19:23.873Z,36.23
2019-03-18T05:21:54.868Z,37.90
2019-03-18T05:24:25.971Z,37.65
2019-03-18T05:26:57.111Z,41.53
2019-03-18T05:29:28.339Z,38.23
2019-03-18T05:31:59.390Z,38.08
2019-03-18T05:34:30.593Z,41.60
2019-03-18T05:37:01.759Z,41.42
2019-03-18T05:39:32.784Z,44.53
2019-03-18T05:42:04.002Z,50.83
2019-03-18T05:44:35.727Z,52.95
2019-03-18T05:47:06.766Z,47.35
2019-03-18T05:49:37.878Z,49.70
2019-03-18T05:52:09.040Z,51.50
2019-03-18T05:54:40.069Z,55.38
2019-03-18T05:57:11.252Z,54.25
2019-03-18T05:59:42.497Z,60.00
2019-03-18T06:02:13.667Z,51.25
2019-03-18T06:04:44.790Z,44.55
2019-03-18T06:07:15.816Z,46.30
2019-03-18T06:09:46.961Z,43.70
2019-03-18T06:12:18.166Z,39.85
2019-03-18T06:14:49.355Z,38.20
2019-03-18T06:17:20.565Z,36.68
2019-03-18T06:19:52.033Z,38.38
2019-03-18T06:22:23.212Z,39.03
2019-03-18T06:24:54.408Z,37.15
2019-03-18T06:27:26.326Z,36.77
2019-03-18T06:29:57.562Z,36.98
2019-03-18T06:32:28.855Z,36.55
2019-03-18T06:35:00.350Z,39.33
2019-03-18T06:37:31.449Z,40.63
2019-03-18T06:40:02.649Z,39.58
2019-03-18T06:42:33.724Z,37.98
2019-03-18T06:45:07.448Z,39.23
2019-03-18T06:47:38.790Z,36.60
2019-03-18T06:50:11.316Z,33.05
2019-03-18T06:52:42.421Z,32.95
2019-03-18T06:55:14.667Z,29.50
2019-03-18T06:57:45.766Z,29.18
2019-03-18T07:00:17.412Z,28.60
2019-03-18T07:02:48.433Z,28.02
2019-03-18T07:05:20.355Z,26.05
2019-03-18T07:07:51.485Z,29.27
2019-03-18T07:10:22.615Z,29.37
2019-03-18T07:12:53.854Z,27.98
2019-03-18T07:15:25.754Z,28.42
2019-03-18T07:17:56.766Z,31.52
2019-03-18T07:20:27.961Z,32.53
2019-03-18T07:22:59.253Z,35.83
2019-03-18T07:25:30.327Z,34.27
2019-03-18T07:28:01.512Z,33.78
2019-03-18T07:30:32.586Z,33.65
2019-03-18T07:33:03.668Z,33.20
2019-03-18T07:35:34.726Z,34.58
2019-03-18T07:38:05.917Z,33.63
2019-03-18T07:40:37.153Z,31.95
2019-03-18T07:43:08.203Z,37.00
2019-03-18T07:45:39.389Z,38.42
2019-03-18T07:48:12.542Z,40.55
2019-03-18T07:50:43.404Z,43.70
2019-03-18T07:53:14.506Z,42.80
2019-03-18T07:55:45.738Z,40.17
2019-03-18T07:58:16.786Z,41.63
2019-03-18T08:00:48.225Z,42.30
2019-03-18T08:03:19.390Z,40.23
2019-03-18T08:05:50.612Z,39.10
2019-03-18T08:08:21.817Z,39.20
2019-03-18T08:10:53.001Z,36.93
2019-03-18T08:13:24.314Z,35.83
2019-03-18T08:15:55.537Z,34.67
2019-03-18T08:18:26.678Z,35.45
2019-03-18T08:20:57.756Z,34.75
2019-03-18T08:23:29.097Z,36.00
2019-03-18T08:26:00.216Z,28.77
2019-03-18T08:28:31.380Z,27.00
2019-03-18T08:31:03.728Z,22.58
2019-03-18T08:33:34.742Z,21.65
2019-03-18T08:36:05.892Z,20.62
2019-03-18T08:38:37.036Z,19.65
2019-03-18T08:41:08.256Z,19.05
2019-03-18T08:43:39.648Z,18.32
2019-03-18T08:46:10.800Z,20.20
2019-03-18T08:48:42.045Z,21.70
2019-03-18T08:51:13.213Z,19.15
2019-03-18T08:53:45.460Z,19.40
2019-03-18T08:56:16.985Z,19.52
2019-03-18T08:58:48.207Z,22.95
2019-03-18T09:01:19.250Z,22.48
2019-03-18T09:03:50.397Z,24.00
2019-03-18T09:06:21.538Z,24.10
2019-03-18T09:08:52.791Z,23.55
2019-03-18T09:11:23.829Z,23.55
2019-03-18T09:13:55.089Z,22.77
2019-03-18T09:16:26.374Z,23.15
2019-03-18T09:19:08.147Z,25.23
2019-03-18T09:21:30.781Z,24.70
2019-03-18T09:24:02.636Z,23.73
2019-03-18T09:26:34.027Z,21.75
2019-03-18T09:29:05.289Z,20.75
2019-03-18T09:31:36.506Z,20.23
2019-03-18T09:34:07.669Z,20.60
2019-03-18T09:36:38.852Z,18.12
2019-03-18T09:39:09.992Z,19.57
2019-03-18T09:41:41.213Z,16.12
2019-03-18T09:44:12.578Z,12.70
2019-03-18T09:46:43.675Z,13.18
2019-03-18T09:49:21.418Z,11.38
2019-03-18T09:51:47.669Z,8.45
2019-03-18T09:54:19.325Z,7.00
2019-03-18T09:56:50.826Z,5.62
2019-03-18T09:59:22.316Z,4.37
2019-03-18T10:01:53.384Z,4.50
2019-03-18T10:04:24.585Z,3.45
2019-03-18T10:06:55.782Z,3.83
2019-03-18T10:09:26.884Z,3.83
2019-03-18T10:11:58.514Z,4.20
2019-03-18T10:14:29.641Z,4.95
2019-03-18T10:17:09.576Z,5.67
2019-03-18T10:19:34.016Z,5.53
2019-03-18T10:22:05.185Z,5.20
2019-03-18T10:24:36.366Z,5.35
2019-03-18T10:27:07.435Z,5.58
2019-03-18T10:29:38.693Z,5.25
2019-03-18T10:32:09.710Z,4.85
2019-03-18T10:34:40.739Z,5.87
2019-03-18T10:37:12.032Z,5.42
2019-03-18T10:39:43.285Z,5.50
2019-03-18T10:42:14.517Z,6.92
2019-03-18T10:44:45.522Z,6.67
2019-03-18T10:47:16.548Z,7.15
2019-03-18T10:49:47.615Z,6.20
2019-03-18T10:52:18.727Z,5.62
2019-03-18T10:54:49.858Z,5.83
2019-03-18T10:57:20.944Z,5.83
2019-03-18T10:59:51.876Z,6.25
2019-03-18T11:02:22.917Z,6.47
2019-03-18T11:04:54.008Z,6.40
2019-03-18T11:07:24.984Z,6.12
2019-03-18T11:09:56.000Z,6.42
2019-03-18T11:12:26.957Z,5.90
2019-03-18T11:14:58.015Z,6.12
2019-03-18T11:17:29.206Z,6.70
2019-03-18T11:20:00.295Z,6.78
2019-03-18T11:22:31.513Z,6.03
2019-03-18T11:25:02.634Z,6.37
2019-03-18T11:27:33.625Z,7.10
2019-03-18T11:30:09.844Z,6.35
2019-03-18T11:32:41.795Z,6.28
2019-03-18T11:35:12.821Z,6.10
2019-03-18T11:37:43.924Z,6.40
2019-03-18T11:40:17.139Z,5.90
2019-03-18T11:42:48.218Z,6.35
2019-03-18T11:45:19.531Z,6.17
2019-03-18T11:47:50.827Z,6.67
2019-03-18T11:50:22.251Z,6.12
2019-03-18T11:52:53.656Z,5.75
2019-03-18T11:55:27.016Z,5.67
2019-03-18T11:57:58.085Z,5.08
2019-03-18T12:00:29.139Z,4.05
2019-03-18T12:03:00.335Z,4.03
2019-03-18T12:05:31.447Z,4.15
2019-03-18T12:08:02.462Z,4.15
2019-03-18T12:10:33.474Z,3.67
2019-03-18T12:13:04.347Z,4.22
2019-03-18T12:15:36.648Z,3.87
2019-03-18T12:18:07.921Z,4.25
2019-03-18T12:20:39.013Z,3.87
2019-03-18T12:23:09.924Z,3.00
2019-03-18T12:25:40.969Z,3.92
2019-03-18T12:28:11.925Z,3.87
2019-03-18T12:30:42.917Z,4.08
2019-03-18T12:33:14.016Z,4.72
2019-03-18T12:35:45.100Z,4.45
2019-03-18T12:38:16.138Z,5.03
2019-03-18T12:40:47.980Z,4.95
2019-03-18T12:43:19.077Z,5.03
2019-03-18T12:45:50.158Z,5.85
2019-03-18T12:48:21.388Z,6.45
2019-03-18T12:50:56.176Z,5.70
2019-03-18T12:53:25.126Z,6.10
2019-03-18T12:55:56.309Z,5.87
2019-03-18T12:58:28.455Z,6.28
2019-03-18T13:01:11.866Z,6.15
2019-03-18T13:03:32.265Z,6.10
2019-03-18T13:06:03.820Z,7.15
2019-03-18T13:08:34.933Z,6.30
2019-03-18T13:11:06.006Z,6.40
2019-03-18T13:13:37.108Z,7.60
2019-03-18T13:16:08.293Z,8.90
2019-03-18T13:18:39.502Z,8.85
2019-03-18T13:21:10.650Z,7.65
2019-03-18T13:23:41.666Z,8.25
2019-03-18T13:26:12.981Z,8.18
2019-03-18T13:28:45.363Z,8.20
2019-03-18T13:31:16.576Z,7.90
2019-03-18T13:33:47.737Z,9.23
2019-03-18T13:36:18.768Z,7.40
2019-03-18T13:38:49.790Z,7.60
2019-03-18T13:41:20.955Z,7.35
2019-03-18T13:43:51.969Z,6.20
2019-03-18T13:46:23.178Z,8.83
2019-03-18T13:48:54.276Z,7.58
2019-03-18T13:51:25.350Z,7.33
2019-03-18T13:53:56.477Z,7.53
2019-03-18T13:56:28.189Z,8.78
2019-03-18T13:58:59.295Z,7.03
2019-03-18T14:01:30.508Z,8.03
2019-03-18T14:04:01.597Z,6.53
2019-03-18T14:06:33.761Z,7.33
2019-03-18T14:09:06.882Z,9.85
2019-03-18T14:11:38.024Z,7.17
2019-03-18T14:14:09.167Z,6.15
2019-03-18T14:16:40.211Z,5.80
2019-03-18T14:19:11.752Z,6.50
2019-03-18T14:21:43.237Z,6.37
2019-03-18T14:24:14.579Z,6.70
2019-03-18T14:26:45.935Z,6.28
2019-03-18T14:29:17.172Z,6.60
2019-03-18T14:31:48.496Z,6.70
2019-03-18T14:34:19.614Z,9.83
2019-03-18T14:36:51.882Z,6.20
2019-03-18T14:39:22.991Z,6.25
2019-03-18T14:41:54.186Z,6.97
2019-03-18T14:44:25.289Z,6.58
2019-03-18T14:46:56.337Z,6.17
2019-03-18T14:49:27.463Z,5.65
2019-03-18T14:51:58.584Z,5.22
2019-03-18T14:54:29.612Z,5.90
2019-03-18T14:57:00.694Z,5.20
2019-03-18T14:59:32.330Z,6.33
2019-03-18T15:02:03.420Z,6.03
2019-03-18T15:04:34.531Z,5.25
2019-03-18T15:07:05.577Z,6.60
2019-03-18T15:09:36.718Z,5.97
2019-03-18T15:12:07.878Z,7.40
2019-03-18T15:14:39.010Z,6.15
2019-03-18T15:17:10.166Z,6.03
2019-03-18T15:19:41.161Z,5.72
2019-03-18T15:22:12.349Z,5.37
2019-03-18T15:24:43.554Z,4.83
2019-03-18T15:27:14.726Z,5.37
2019-03-18T15:29:45.689Z,6.05
2019-03-18T15:32:16.607Z,5.55
2019-03-18T15:34:47.616Z,7.15
2019-03-18T15:37:18.594Z,6.78
2019-03-18T15:39:49.645Z,8.85
2019-03-18T15:42:20.740Z,5.72
2019-03-18T15:44:51.727Z,7.05
2019-03-18T15:47:22.761Z,10.18
2019-03-18T15:49:53.911Z,8.88
2019-03-18T15:52:25.127Z,6.00
2019-03-18T15:54:56.192Z,5.45
2019-03-18T15:57:29.929Z,6.50
2019-03-18T15:59:59.716Z,6.30
2019-03-18T16:02:30.641Z,6.90
2019-03-18T16:05:01.600Z,6.25
2019-03-18T16:07:32.769Z,7.65
2019-03-18T16:10:05.017Z,9.50
2019-03-18T16:12:35.981Z,8.68
2019-03-18T16:15:09.626Z,8.78
2019-03-18T16:20:20.657Z,8.83
2019-03-18T16:22:51.616Z,8.68
2019-03-18T16:25:22.710Z,9.90
2019-03-18T16:27:53.664Z,9.83
2019-03-18T16:30:24.593Z,9.65
2019-03-18T16:32:55.652Z,10.32
2019-03-18T16:35:26.647Z,10.03
2019-03-18T16:37:58.135Z,10.48
2019-03-18T16:40:29.260Z,10.82
2019-03-18T16:43:00.355Z,11.75
2019-03-18T16:45:31.489Z,10.25
2019-03-18T16:48:02.718Z,10.80
2019-03-18T16:50:33.914Z,9.75
2019-03-18T16:53:05.136Z,10.38
2019-03-18T16:55:36.186Z,10.20
2019-03-18T16:58:07.223Z,8.75
2019-03-18T17:00:38.217Z,10.08
2019-03-18T17:03:09.492Z,8.78
2019-03-18T17:05:40.449Z,9.15
2019-03-18T17:08:11.454Z,8.55
2019-03-18T17:10:42.427Z,9.03
2019-03-18T17:13:13.582Z,9.45
2019-03-18T17:15:44.577Z,10.18
2019-03-18T17:18:17.986Z,10.70
2019-03-18T17:20:48.712Z,11.03
2019-03-18T17:23:20.981Z,11.25
2019-03-18T17:25:52.323Z,10.70
2019-03-18T17:28:23.369Z,11.20
2019-03-18T17:30:54.523Z,12.37
2019-03-18T17:33:25.683Z,12.25
2019-03-18T17:35:56.734Z,12.25
2019-03-18T17:38:28.010Z,13.88
2019-03-18T17:40:59.000Z,16.05
2019-03-18T17:43:30.336Z,15.90
2019-03-18T17:46:01.471Z,16.60
2019-03-18T17:48:32.652Z,17.32
2019-03-18T17:51:03.887Z,16.10
2019-03-18T17:53:35.003Z,16.55
2019-03-18T17:56:06.288Z,15.15
2019-03-18T17:58:37.507Z,20.88
2019-03-18T18:01:08.642Z,17.37
2019-03-18T18:03:39.699Z,15.35
2019-03-18T18:06:10.788Z,15.18
2019-03-18T18:08:42.091Z,15.53
2019-03-18T18:11:13.294Z,14.55
2019-03-18T18:13:44.460Z,15.58
2019-03-18T18:16:15.581Z,15.30
2019-03-18T18:18:46.797Z,14.98
2019-03-18T18:21:17.941Z,14.87
2019-03-18T18:23:49.243Z,15.95
2019-03-18T18:26:20.294Z,14.60
2019-03-18T18:28:51.336Z,14.00
2019-03-18T18:31:22.319Z,13.48
2019-03-18T18:33:53.788Z,13.90
2019-03-18T18:36:25.424Z,13.58
2019-03-18T18:38:56.633Z,13.90
2019-03-18T18:41:27.851Z,13.55
2019-03-18T18:43:59.162Z,14.13
2019-03-18T18:46:30.208Z,14.23
2019-03-18T18:49:02.145Z,15.78
2019-03-18T18:51:33.269Z,14.20
2019-03-18T18:54:04.675Z,13.85
2019-03-18T18:56:35.771Z,14.45
2019-03-18T18:59:06.956Z,15.75
2019-03-18T19:01:38.053Z,15.28
2019-03-18T19:04:09.194Z,15.20
2019-03-18T19:06:40.218Z,15.03
2019-03-18T19:09:11.267Z,15.68
2019-03-18T19:11:42.356Z,15.70
2019-03-18T19:14:13.428Z,14.80
2019-03-18T19:16:44.493Z,15.08
2019-03-18T19:19:15.633Z,15.72
2019-03-18T19:21:47.083Z,15.75
2019-03-18T19:24:18.392Z,15.55
2019-03-18T19:26:49.468Z,15.72
2019-03-18T19:29:20.637Z,17.40
2019-03-18T19:31:51.819Z,15.95
2019-03-18T19:34:22.933Z,15.45
2019-03-18T19:36:54.170Z,17.35
2019-03-18T19:39:25.184Z,15.88
2019-03-18T19:41:56.183Z,18.75
2019-03-18T19:44:27.228Z,19.40
2019-03-18T19:46:58.216Z,21.25
2019-03-18T19:49:29.272Z,23.30
2019-03-18T19:52:00.312Z,23.18
2019-03-18T19:54:31.454Z,24.23
2019-03-18T19:57:03.621Z,23.27
2019-03-18T19:59:34.669Z,24.25
2019-03-18T20:02:05.706Z,21.50
2019-03-18T20:04:36.676Z,21.97
2019-03-18T20:07:07.742Z,21.30
2019-03-18T20:09:38.882Z,21.07
2019-03-18T20:12:09.992Z,21.20
2019-03-18T20:14:41.175Z,22.25
2019-03-18T20:17:12.291Z,21.90
2019-03-18T20:19:43.459Z,21.23
2019-03-18T20:22:14.557Z,22.58
2019-03-18T20:24:45.692Z,20.77
2019-03-18T20:27:16.707Z,21.57
2019-03-18T20:29:47.808Z,21.80
2019-03-18T20:32:18.815Z,21.68
2019-03-18T20:34:49.871Z,21.73
2019-03-18T20:37:20.890Z,20.17
2019-03-18T20:39:51.957Z,20.92
2019-03-18T20:42:23.097Z,19.65
2019-03-18T20:44:54.157Z,20.02
2019-03-18T20:47:25.283Z,18.73
2019-03-18T20:49:57.494Z,19.10
2019-03-18T20:52:29.005Z,18.40
2019-03-18T20:55:00.160Z,18.15
2019-03-18T20:57:31.569Z,19.42
2019-03-18T21:00:03.275Z,21.15
2019-03-18T21:02:35.831Z,20.48
2019-03-18T21:05:09.070Z,19.70
2019-03-18T21:07:40.257Z,20.50
2019-03-18T21:10:16.408Z,20.10
2019-03-18T21:12:47.513Z,19.50
2019-03-18T21:15:18.861Z,19.20
2019-03-18T21:17:49.973Z,20.43
2019-03-18T21:20:23.420Z,21.50
2019-03-18T21:25:24.829Z,21.57
2019-03-18T21:27:56.290Z,20.55
2019-03-18T21:30:27.362Z,20.17
2019-03-18T21:32:58.492Z,19.05
2019-03-18T21:35:29.529Z,17.40
2019-03-18T21:38:00.820Z,17.27
2019-03-18T21:40:31.899Z,16.57
2019-03-18T21:43:02.981Z,18.60
2019-03-18T21:45:34.084Z,17.75
2019-03-18T21:48:05.133Z,17.73
2019-03-18T21:50:36.175Z,16.97
2019-03-18T21:53:07.523Z,16.23
2019-03-18T21:55:38.603Z,17.10
2019-03-18T21:58:10.092Z,17.00
2019-03-18T22:00:41.191Z,17.57
2019-03-18T22:03:12.445Z,18.42
2019-03-18T22:05:43.550Z,17.45
2019-03-18T22:08:14.836Z,17.55
2019-03-18T22:10:45.909Z,17.70
2019-03-18T22:13:17.004Z,17.20
2019-03-18T22:15:49.276Z,16.73
2019-03-18T22:18:22.973Z,15.05
2019-03-18T22:20:56.597Z,14.80
2019-03-18T22:23:29.839Z,14.20
2019-03-18T22:26:03.253Z,13.53
2019-03-18T22:28:35.236Z,12.95
2019-03-18T22:31:06.742Z,13.15
2019-03-18T22:33:37.803Z,12.88
2019-03-18T22:36:08.943Z,12.50
2019-03-18T22:38:39.932Z,12.33
2019-03-18T22:41:11.029Z,12.75
2019-03-18T22:43:42.006Z,13.00
2019-03-18T22:46:13.011Z,12.03
2019-03-18T22:48:44.180Z,11.75
2019-03-18T22:51:15.236Z,10.70
2019-03-18T22:53:46.346Z,11.85
2019-03-18T22:56:17.548Z,12.00
2019-03-18T22:58:48.631Z,11.73
2019-03-18T23:01:19.760Z,11.45
2019-03-18T23:03:50.861Z,11.12
2019-03-18T23:06:21.956Z,11.10
2019-03-18T23:08:54.162Z,10.82
2019-03-18T23:11:25.149Z,10.18
2019-03-18T23:13:56.303Z,11.45
2019-03-18T23:16:27.288Z,11.65
2019-03-18T23:18:59.531Z,12.10
2019-03-18T23:21:30.525Z,11.93
2019-03-18T23:24:01.567Z,11.80
2019-03-18T23:26:32.790Z,12.00
2019-03-18T23:29:03.857Z,10.72
2019-03-18T23:31:34.989Z,13.90
2019-03-18T23:34:06.181Z,12.20
2019-03-18T23:36:37.315Z,11.90
2019-03-18T23:39:08.733Z,11.95
2019-03-18T23:41:39.909Z,12.28
2019-03-18T23:44:11.172Z,11.83
2019-03-18T23:46:42.222Z,12.50
2019-03-18T23:49:13.390Z,13.45
2019-03-18T23:51:44.565Z,12.50
2019-03-18T23:54:15.751Z,12.65
2019-03-18T23:56:46.765Z,13.20
2019-03-18T23:59:17.853Z,12.63
